Time;durP1;ratioP1;P1;durP2;ratioP2;P2;SDS_P1;SDS_P2;PMS_P1;PMS_P2;Temp;Humidity;BMP_temperature;BMP_pressure;BME280_temperature;BME280_humidity;BME280_pressure;Samples;Min_cycle;Max_cycle;Signal;HPM_P1;HPM_P2
2022/10/30 00:00:36;;;;;;;24.02;8.65;;;;;;;15.67;78.08;98709.38;7386731;19;20039;-77
2022/10/30 00:03:03;;;;;;;18.83;7.95;;;;;;;15.67;77.97;98696.06;7387370;19;20381;-77
2022/10/30 00:05:30;;;;;;;19.00;8.77;;;;;;;15.68;77.83;98692.38;7385549;19;20449;-77
2022/10/30 00:07:57;;;;;;;16.80;8.48;;;;;;;15.73;77.63;98689.19;7383810;19;20019;-78
2022/10/30 00:10:24;;;;;;;19.73;8.25;;;;;;;15.69;77.69;98688.75;7372426;19;20025;-83
2022/10/30 00:13:01;;;;;;;22.75;8.70;;;;;;;15.68;77.66;98688.88;7383914;19;20382;-83
2022/10/30 00:15:35;;;;;;;24.02;8.27;;;;;;;15.66;77.43;98681.03;7391460;19;20019;-83
2022/10/30 00:18:13;;;;;;;21.13;8.07;;;;;;;15.64;77.69;98684.91;7387459;19;20021;-83
2022/10/30 00:20:40;;;;;;;11.65;7.63;;;;;;;15.63;77.61;98688.59;7386904;19;20011;-83
2022/10/30 00:23:07;;;;;;;18.92;8.65;;;;;;;15.57;77.71;98685.63;7384853;19;20058;-83
2022/10/30 00:25:35;;;;;;;18.92;7.90;;;;;;;15.58;77.55;98686.47;7385519;19;20019;-83
2022/10/30 00:28:05;;;;;;;22.45;8.38;;;;;;;15.52;77.61;98684.50;7389692;19;20026;-83
2022/10/30 00:30:36;;;;;;;15.18;8.05;;;;;;;15.48;77.68;98692.06;7390293;19;20022;-83
2022/10/30 00:33:03;;;;;;;20.42;7.95;;;;;;;15.46;77.84;98685.25;7396088;19;20039;-83
2022/10/30 00:35:30;;;;;;;20.00;8.07;;;;;;;15.48;77.69;98683.19;7392180;19;20006;-83
2022/10/30 00:37:59;;;;;;;18.83;8.48;;;;;;;15.49;77.38;98683.03;7395495;19;20100;-83
2022/10/30 00:40:27;;;;;;;16.35;8.70;;;;;;;15.51;77.40;98686.34;7392037;19;20010;-83
2022/10/30 00:42:54;;;;;;;15.15;7.97;;;;;;;15.46;77.70;98691.41;7394154;19;20006;-83
2022/10/30 00:45:21;;;;;;;22.65;8.15;;;;;;;15.47;77.25;98689.56;7391875;19;20035;-83
2022/10/30 00:47:57;;;;;;;24.00;8.70;;;;;;;15.35;77.52;98689.16;7396925;19;20022;-83
2022/10/30 00:50:33;;;;;;;16.40;8.05;;;;;;;15.36;77.75;98691.63;7393859;19;20014;-83
2022/10/30 00:53:16;;;;;;;18.98;8.18;;;;;;;15.31;77.77;98683.34;7396026;19;20007;-83
2022/10/30 00:55:55;;;;;;;13.68;7.90;;;;;;;15.32;78.31;98682.34;7394136;19;20552;-83
2022/10/30 00:58:30;;;;;;;22.00;8.30;;;;;;;15.30;77.80;98678.22;7393098;19;20086;-83
2022/10/30 01:01:08;;;;;;;13.93;7.25;;;;;;;15.18;78.02;98679.63;7392299;19;20011;-83
2022/10/30 01:06:47;;;;;;;13.55;7.55;;;;;;;15.18;78.15;98683.09;7398952;19;20016;-83
2022/10/30 01:09:14;;;;;;;13.43;7.25;;;;;;;15.21;78.25;98684.59;7397552;19;20029;-83
2022/10/30 01:11:52;;;;;;;17.30;8.00;;;;;;;15.12;77.99;98683.81;7396381;19;20014;-84
2022/10/30 01:14:27;;;;;;;21.15;8.82;;;;;;;15.05;78.00;98690.88;7403845;19;20097;-84
2022/10/30 01:17:25;;;;;;;18.83;7.60;;;;;;;15.10;78.21;98694.66;7401331;19;20504;-84
2022/10/30 01:20:22;;;;;;;24.63;9.25;;;;;;;15.14;77.87;98687.16;7397909;19;20026;-84
2022/10/30 01:23:08;;;;;;;17.10;8.07;;;;;;;15.10;77.75;98688.50;7400015;19;20014;-83
2022/10/30 01:25:52;;;;;;;17.17;8.82;;;;;;;15.08;78.15;98687.84;7402764;19;20031;-83
2022/10/30 01:29:12;;;;;;;14.27;8.25;;;;;;;14.99;77.99;98683.59;7399679;19;20492;-84
2022/10/30 01:31:42;;;;;;;24.20;8.77;;;;;;;15.17;77.47;98678.78;7400098;19;20011;-83
2022/10/30 01:34:19;;;;;;;14.20;8.10;;;;;;;15.10;77.48;98677.84;7398824;19;20072;-83
2022/10/30 01:37:00;;;;;;;15.80;8.60;;;;;;;15.00;77.55;98682.56;7400790;19;20018;-83
2022/10/30 01:39:32;;;;;;;18.80;9.07;;;;;;;14.91;77.83;98674.63;7400297;19;20046;-83
2022/10/30 01:42:08;;;;;;;19.05;8.30;;;;;;;14.87;78.00;98664.50;7393021;19;20074;-84
2022/10/30 01:44:38;;;;;;;13.57;8.45;;;;;;;14.94;78.41;98665.47;7394380;19;20291;-84
2022/10/30 01:47:43;;;;;;;17.63;9.32;;;;;;;15.03;77.91;98664.38;7388404;19;20014;-84
2022/10/30 01:50:31;;;;;;;16.35;7.03;;;;;;;14.92;77.77;98654.97;7392072;19;20043;-82
2022/10/30 01:53:08;;;;;;;17.40;7.95;;;;;;;14.90;78.08;98656.16;7392937;19;20036;-83
2022/10/30 01:55:42;;;;;;;23.02;7.97;;;;;;;14.90;78.49;98656.16;7393513;19;20395;-83
2022/10/30 01:58:30;;;;;;;16.00;7.60;;;;;;;15.02;77.88;98653.91;7392850;19;20014;-83
2022/10/30 02:00:58;;;;;;;18.02;7.25;;;;;;;15.01;77.76;98652.25;7393813;19;20011;-83
2022/10/30 02:03:25;;;;;;;14.50;7.78;;;;;;;15.07;77.87;98648.88;7393565;19;20010;-83
2022/10/30 02:05:53;;;;;;;16.38;7.78;;;;;;;15.10;78.05;98653.84;7390083;19;20031;-84
2022/10/30 02:08:22;;;;;;;17.05;6.85;;;;;;;15.11;77.83;98655.50;7391262;19;20066;-83
2022/10/30 02:10:55;;;;;;;19.30;8.02;;;;;;;15.12;77.82;98649.19;7387789;19;20047;-84
2022/10/30 02:13:36;;;;;;;22.90;7.93;;;;;;;15.18;77.58;98643.13;7390881;19;20066;-83
2022/10/30 02:16:02;;;;;;;27.67;8.18;;;;;;;15.25;76.90;98648.59;7390486;19;20011;-83
2022/10/30 02:18:33;;;;;;;19.02;7.57;;;;;;;15.25;76.76;98645.94;7389107;19;20100;-82
2022/10/30 02:21:01;;;;;;;19.45;7.97;;;;;;;15.25;76.79;98640.59;7388221;19;20018;-82
2022/10/30 02:23:28;;;;;;;16.73;7.18;;;;;;;15.21;76.86;98645.44;7391850;19;20043;-83
2022/10/30 02:25:55;;;;;;;17.73;7.57;;;;;;;15.23;76.87;98640.75;7396466;19;20006;-83
2022/10/30 02:28:21;;;;;;;20.50;7.50;;;;;;;15.19;76.83;98642.13;7399262;19;20010;-83
2022/10/30 02:30:48;;;;;;;12.27;6.65;;;;;;;15.23;76.64;98648.75;7398596;19;20019;-83
2022/10/30 02:33:15;;;;;;;16.00;7.07;;;;;;;15.15;76.78;98638.16;7398050;19;20027;-83
2022/10/30 02:35:43;;;;;;;17.60;7.07;;;;;;;15.12;76.50;98644.69;7396375;19;20015;-82
2022/10/30 02:38:10;;;;;;;14.15;7.20;;;;;;;15.21;76.28;98632.09;7396041;19;20018;-82
2022/10/30 02:40:37;;;;;;;16.98;6.97;;;;;;;15.11;76.29;98629.72;7397224;19;20010;-82
2022/10/30 02:43:06;;;;;;;21.95;6.53;;;;;;;15.13;76.73;98629.50;7398797;19;20014;-82
2022/10/30 02:45:32;;;;;;;18.92;6.65;;;;;;;15.09;76.73;98633.56;7399436;19;20025;-83
2022/10/30 02:48:00;;;;;;;16.27;6.65;;;;;;;15.20;76.21;98635.78;7396839;19;20367;-82
2022/10/30 02:50:28;;;;;;;16.70;6.30;;;;;;;15.12;76.08;98631.34;7395293;19;20371;-82
2022/10/30 02:52:54;;;;;;;12.27;5.70;;;;;;;15.15;75.87;98632.84;7396110;19;20022;-83
2022/10/30 02:55:22;;;;;;;16.60;6.15;;;;;;;15.15;75.48;98630.16;7399516;19;20017;-82
2022/10/30 02:57:51;;;;;;;21.02;6.40;;;;;;;15.17;75.64;98625.50;7397380;19;20007;-81
2022/10/30 03:00:18;;;;;;;13.60;6.57;;;;;;;14.99;75.78;98638.28;7396351;19;20469;-82
2022/10/30 03:02:44;;;;;;;16.83;7.30;;;;;;;14.93;75.93;98629.19;7403606;19;20017;-82
2022/10/30 03:05:11;;;;;;;12.57;5.75;;;;;;;14.92;76.09;98631.00;7403109;19;20031;-82
2022/10/30 03:07:38;;;;;;;15.00;6.43;;;;;;;14.83;76.26;98639.22;7401995;19;20014;-82
2022/10/30 03:10:05;;;;;;;12.90;6.30;;;;;;;14.86;76.18;98634.38;7396175;19;20468;-83
2022/10/30 03:12:32;;;;;;;17.50;6.18;;;;;;;14.80;76.31;98631.59;7400309;19;20082;-82
2022/10/30 03:14:58;;;;;;;18.35;6.97;;;;;;;14.82;76.27;98632.22;7398034;19;20035;-82
2022/10/30 03:17:25;;;;;;;18.25;6.70;;;;;;;14.82;76.25;98638.38;7400480;19;20022;-83
2022/10/30 03:19:52;;;;;;;15.75;6.63;;;;;;;14.81;76.59;98635.91;7402282;19;20015;-82
2022/10/30 03:22:19;;;;;;;18.60;6.93;;;;;;;14.83;76.34;98629.41;7400934;19;20039;-83
2022/10/30 03:24:46;;;;;;;16.70;6.50;;;;;;;14.75;76.25;98629.47;7399984;19;20043;-82
2022/10/30 03:27:13;;;;;;;17.90;6.82;;;;;;;14.75;76.38;98631.28;7397384;19;20035;-82
2022/10/30 03:29:39;;;;;;;15.30;6.20;;;;;;;14.71;76.49;98625.47;7396125;19;20010;-82
2022/10/30 03:32:11;;;;;;;15.88;6.70;;;;;;;14.70;76.63;98629.16;7396676;19;20035;-82
2022/10/30 03:34:49;;;;;;;14.05;6.00;;;;;;;14.63;76.13;98631.69;7400795;19;20540;-82
2022/10/30 03:37:17;;;;;;;18.88;6.68;;;;;;;14.58;75.93;98641.19;7394288;19;20094;-81
2022/10/30 03:39:44;;;;;;;14.73;6.50;;;;;;;14.47;76.27;98643.22;7398026;19;20011;-81
2022/10/30 03:42:14;;;;;;;22.23;6.43;;;;;;;14.52;76.52;98649.84;7396459;19;20011;-81
2022/10/30 03:44:41;;;;;;;20.42;7.50;;;;;;;14.55;76.37;98653.03;7396755;19;20011;-81
2022/10/30 03:47:08;;;;;;;19.33;6.40;;;;;;;14.49;76.72;98654.53;7398178;19;20015;-80
2022/10/30 03:49:40;;;;;;;13.23;6.47;;;;;;;14.48;76.41;98658.19;7394321;19;20015;-81
2022/10/30 03:52:11;;;;;;;14.65;5.65;;;;;;;14.46;76.37;98649.53;7398150;19;20082;-81
2022/10/30 03:54:37;;;;;;;14.82;6.18;;;;;;;14.44;76.66;98656.06;7393925;19;20607;-82
2022/10/30 03:57:14;;;;;;;16.38;6.95;;;;;;;14.41;76.90;98657.22;7392848;19;20010;-82
2022/10/30 03:59:59;;;;;;;10.93;5.35;;;;;;;14.41;76.98;98657.22;7388100;19;20050;-82
2022/10/30 04:02:54;;;;;;;16.08;5.85;;;;;;;14.41;76.52;98662.53;7391239;19;20044;-82
2022/10/30 04:05:28;;;;;;;14.95;5.97;;;;;;;14.29;77.01;98653.28;7389393;19;20010;-81
2022/10/30 04:08:04;;;;;;;16.15;7.15;;;;;;;14.20;76.89;98654.31;7391798;19;20076;-82
2022/10/30 04:10:34;;;;;;;13.82;6.07;;;;;;;14.14;77.46;98657.66;7390040;19;20021;-81
2022/10/30 04:13:06;;;;;;;17.38;6.35;;;;;;;14.17;78.04;98654.66;7393162;19;20383;-82
2022/10/30 04:15:36;;;;;;;11.63;5.60;;;;;;;14.17;78.13;98655.50;7393503;19;20031;-82
2022/10/30 04:18:03;;;;;;;13.18;6.22;;;;;;;14.26;77.65;98664.25;7393796;19;20014;-82
2022/10/30 04:20:36;;;;;;;18.90;6.32;;;;;;;14.24;77.35;98658.28;7394452;19;20016;-82
2022/10/30 04:23:18;;;;;;;18.23;6.22;;;;;;;14.21;77.56;98661.28;7394043;19;20039;-82
2022/10/30 04:25:48;;;;;;;13.70;5.78;;;;;;;14.23;77.42;98659.28;7395919;19;20013;-82
2022/10/30 04:31:43;;;;;;;10.15;6.07;;;;;;;14.20;77.98;98660.47;7388049;19;20098;-83
2022/10/30 04:34:11;;;;;;;14.55;5.57;;;;;;;14.22;77.74;98660.31;7392659;19;20687;-82
2022/10/30 04:36:37;;;;;;;18.23;7.20;;;;;;;14.19;77.43;98650.84;7394428;19;20013;-82
2022/10/30 04:39:04;;;;;;;14.80;5.65;;;;;;;14.16;77.61;98655.66;7403118;19;20014;-82
2022/10/30 04:41:32;;;;;;;18.33;7.25;;;;;;;14.11;77.63;98658.81;7395312;19;20010;-82
2022/10/30 04:44:13;;;;;;;19.67;5.70;;;;;;;14.22;77.14;98665.63;7398819;19;20473;-82
2022/10/30 04:46:40;;;;;;;16.88;7.07;;;;;;;14.22;76.48;98663.78;7395718;19;20022;-82
2022/10/30 04:49:08;;;;;;;12.95;5.13;;;;;;;14.24;76.61;98655.63;7393193;19;20010;-83
2022/10/30 04:51:36;;;;;;;17.05;6.03;;;;;;;14.28;76.32;98654.28;7396588;19;20022;-82
2022/10/30 04:54:17;;;;;;;18.92;6.82;;;;;;;14.25;75.84;98657.28;7399020;19;20019;-82
2022/10/30 04:57:05;;;;;;;20.00;7.28;;;;;;;14.15;76.12;98659.31;7399032;19;20663;-83
2022/10/30 04:59:47;;;;;;;17.35;6.47;;;;;;;14.18;76.35;98651.00;7394818;19;20046;-82
2022/10/30 05:02:14;;;;;;;11.80;6.15;;;;;;;14.13;76.47;98650.69;7399216;19;20018;-82
2022/10/30 05:04:51;;;;;;;15.38;6.22;;;;;;;14.08;76.70;98655.69;7400568;19;20011;-82
2022/10/30 05:11:10;;;;;;;13.43;6.10;;;;;;;13.97;76.45;98648.91;7391257;19;20804;-82
2022/10/30 05:13:38;;;;;;;14.40;5.80;;;;;;;13.95;76.15;98650.91;7393799;19;20023;-82
2022/10/30 05:16:12;;;;;;;14.77;6.53;;;;;;;13.87;76.08;98657.06;7398286;19;20089;-83
2022/10/30 05:18:39;;;;;;;11.02;5.47;;;;;;;13.75;76.76;98647.78;7398029;19;20403;-82
2022/10/30 05:21:05;;;;;;;10.70;5.70;;;;;;;13.58;77.65;98646.97;7396460;19;20021;-83
2022/10/30 05:23:37;;;;;;;12.50;5.50;;;;;;;13.70;77.53;98642.97;7395551;19;20038;-85
2022/10/30 05:29:00;;;;;;;11.77;5.45;;;;;;;13.77;77.14;98643.13;7395020;19;19974;-82
2022/10/30 05:31:34;;;;;;;18.50;6.07;;;;;;;13.72;77.25;98645.47;7395667;19;20018;-83
2022/10/30 05:34:03;;;;;;;12.18;6.07;;;;;;;13.64;77.37;98648.13;7398786;19;20080;-83
2022/10/30 05:36:36;;;;;;;19.45;6.20;;;;;;;13.65;77.70;98642.66;7396291;19;20035;-82
2022/10/30 05:39:03;;;;;;;18.02;6.05;;;;;;;13.69;77.48;98643.13;7393818;19;20022;-82
2022/10/30 05:41:33;;;;;;;14.70;6.72;;;;;;;13.72;77.59;98645.47;7394646;19;20006;-82
2022/10/30 05:44:01;;;;;;;12.40;5.90;;;;;;;13.73;77.54;98652.44;7392888;19;20015;-82
2022/10/30 05:46:28;;;;;;;14.77;6.03;;;;;;;13.80;77.36;98648.94;7387132;19;20363;-82
2022/10/30 05:49:04;;;;;;;16.45;5.88;;;;;;;13.68;77.59;98646.81;7386835;19;20335;-82
2022/10/30 05:51:32;;;;;;;13.90;6.47;;;;;;;13.66;77.69;98635.50;7388228;19;20023;-82
2022/10/30 05:54:07;;;;;;;14.25;6.13;;;;;;;13.69;77.58;98636.00;7390581;19;20086;-82
2022/10/30 05:56:36;;;;;;;21.98;6.63;;;;;;;13.68;77.56;98644.16;7391177;19;20342;-82
2022/10/30 05:59:03;;;;;;;13.23;5.88;;;;;;;13.67;77.37;98642.50;7392862;19;20031;-82
2022/10/30 06:01:30;;;;;;;16.38;6.28;;;;;;;13.76;76.63;98641.47;7397713;19;20022;-82
2022/10/30 06:03:59;;;;;;;15.65;5.85;;;;;;;13.76;76.46;98652.94;7399898;19;20015;-82
2022/10/30 06:06:26;;;;;;;38.53;6.30;;;;;;;13.76;76.25;98646.78;7402761;19;20019;-82
2022/10/30 06:08:54;;;;;;;15.45;5.82;;;;;;;13.77;76.04;98648.44;7400024;19;20047;-82
2022/10/30 06:11:33;;;;;;;12.68;5.95;;;;;;;13.75;76.06;98640.66;7398231;19;20010;-82
2022/10/30 06:14:01;;;;;;;15.48;6.38;;;;;;;13.64;76.29;98648.97;7398552;19;19998;-82
2022/10/30 06:16:38;;;;;;;17.63;6.22;;;;;;;13.57;76.41;98650.66;7399632;19;20031;-82
2022/10/30 06:19:24;;;;;;;15.63;6.07;;;;;;;13.53;76.44;98647.50;7397446;19;19999;-83
2022/10/30 06:22:10;;;;;;;17.70;6.45;;;;;;;13.50;76.60;98650.47;7405949;19;20023;-83
2022/10/30 06:24:44;;;;;;;18.00;5.82;;;;;;;13.46;76.70;98656.31;7407264;19;20026;-83
2022/10/30 06:27:26;;;;;;;18.17;7.05;;;;;;;13.46;76.71;98656.31;7404556;19;20418;-82
2022/10/30 06:29:53;;;;;;;16.95;6.55;;;;;;;13.46;76.73;98656.31;7401675;19;20003;-83
2022/10/30 06:32:21;;;;;;;14.50;5.72;;;;;;;13.45;77.56;98658.13;7401889;19;20018;-83
2022/10/30 06:34:48;;;;;;;17.42;6.57;;;;;;;13.41;77.64;98662.13;7402886;19;20042;-83
2022/10/30 06:37:16;;;;;;;16.38;6.18;;;;;;;13.48;77.52;98662.25;7400552;19;20026;-82
2022/10/30 06:39:48;;;;;;;21.92;6.43;;;;;;;13.53;77.46;98663.44;7395333;19;20015;-82
2022/10/30 06:42:44;;;;;;;15.93;6.85;;;;;;;13.48;77.52;98662.25;7400334;19;20014;-82
2022/10/30 06:45:44;;;;;;;14.20;5.70;;;;;;;13.49;77.92;98658.63;7397544;19;20021;-82
2022/10/30 06:48:28;;;;;;;16.50;5.88;;;;;;;13.55;77.62;98660.59;7396015;19;20013;-82
2022/10/30 06:50:56;;;;;;;10.07;5.97;;;;;;;13.70;77.71;98658.94;7394595;19;20034;-84
2022/10/30 06:53:24;;;;;;;16.38;6.15;;;;;;;13.70;77.70;98666.91;7396508;19;20019;-81
2022/10/30 06:56:06;;;;;;;19.52;7.20;;;;;;;13.73;77.54;98671.06;7397900;19;20011;-82
2022/10/30 06:59:05;;;;;;;16.25;6.90;;;;;;;13.76;77.89;98666.22;7396430;19;20018;-83
2022/10/30 07:01:46;;;;;;;12.40;6.40;;;;;;;13.94;77.67;98666.03;7398481;19;20026;-83
2022/10/30 07:04:16;;;;;;;13.50;5.75;;;;;;;14.08;77.13;98656.50;7394733;19;20086;-82
2022/10/30 07:06:49;;;;;;;16.73;6.47;;;;;;;14.30;76.35;98657.63;7398211;19;20043;-81
2022/10/30 07:09:28;;;;;;;13.85;6.43;;;;;;;14.30;75.87;98654.09;7394958;19;20018;-82
2022/10/30 07:12:05;;;;;;;17.45;6.47;;;;;;;14.42;75.84;98658.88;7395851;19;20003;-82
2022/10/30 07:14:40;;;;;;;15.88;5.68;;;;;;;14.48;75.60;98663.53;7401493;19;20031;-82
2022/10/30 07:17:24;;;;;;;14.57;5.10;;;;;;;14.54;75.65;98663.88;7396925;19;20014;-83
2022/10/30 07:19:55;;;;;;;15.93;5.65;;;;;;;14.52;75.64;98663.16;7394943;19;20478;-81
2022/10/30 07:22:22;;;;;;;17.17;6.13;;;;;;;14.55;75.56;98662.84;7400487;19;20035;-82
2022/10/30 07:24:56;;;;;;;14.35;5.90;;;;;;;14.62;75.19;98661.16;7398299;19;20014;-82
2022/10/30 07:27:51;;;;;;;14.43;5.40;;;;;;;14.68;75.01;98671.91;7393410;19;20014;-83
2022/10/30 07:30:27;;;;;;;16.30;6.30;;;;;;;14.75;74.61;98664.06;7390530;19;20022;-83
2022/10/30 07:33:13;;;;;;;12.65;5.05;;;;;;;14.86;74.67;98665.50;7395295;19;20021;-83
2022/10/30 07:36:14;;;;;;;13.83;5.33;;;;;;;14.92;74.13;98665.63;7394512;19;20099;-83
2022/10/30 07:38:50;;;;;;;13.98;5.18;;;;;;;14.88;74.51;98667.00;7396706;19;20086;-83
2022/10/30 07:41:39;;;;;;;16.17;5.45;;;;;;;14.95;74.54;98663.63;7395778;19;20019;-81
2022/10/30 07:44:32;;;;;;;12.27;5.28;;;;;;;15.07;74.55;98667.53;7400255;19;20029;-83
2022/10/30 07:47:11;;;;;;;20.10;6.07;;;;;;;15.22;74.52;98676.44;7395509;19;20482;-82
2022/10/30 07:49:44;;;;;;;12.27;5.70;;;;;;;15.27;74.39;98668.72;7397650;19;20043;-82
2022/10/30 07:52:12;;;;;;;16.50;5.97;;;;;;;15.33;74.08;98673.34;7392955;19;20027;-82
2022/10/30 07:54:44;;;;;;;18.02;5.57;;;;;;;15.44;74.28;98669.41;7396479;19;20107;-81
2022/10/30 07:57:38;;;;;;;13.20;5.70;;;;;;;15.48;72.96;98677.88;7395474;19;20015;-83
2022/10/30 08:00:15;;;;;;;16.65;5.75;;;;;;;15.58;73.13;98673.13;7391760;19;20043;-82
2022/10/30 08:02:55;;;;;;;18.80;5.65;;;;;;;15.66;73.87;98675.72;7399179;19;20014;-82
2022/10/30 08:05:32;;;;;;;18.23;6.07;;;;;;;15.73;73.16;98673.19;7394562;19;20564;-83
2022/10/30 08:08:08;;;;;;;13.82;6.28;;;;;;;15.89;73.48;98675.69;7398873;19;20018;-83
2022/10/30 08:10:40;;;;;;;16.45;4.63;;;;;;;15.95;72.50;98674.94;7394350;19;20357;-82
2022/10/30 08:13:07;;;;;;;15.30;5.80;;;;;;;16.00;72.71;98671.75;7396911;19;20011;-81
2022/10/30 08:15:34;;;;;;;14.32;5.65;;;;;;;16.17;72.15;98683.91;7396407;19;20030;-82
2022/10/30 08:18:02;;;;;;;12.18;5.20;;;;;;;16.15;72.05;98677.91;7412603;19;20029;-82
2022/10/30 08:20:29;;;;;;;13.13;4.80;;;;;;;16.25;71.86;98675.00;7410726;19;20098;-81
2022/10/30 08:22:58;;;;;;;15.50;4.80;;;;;;;16.37;71.54;98676.16;7399515;19;20774;-81
2022/10/30 08:25:27;;;;;;;12.23;5.75;;;;;;;16.42;71.08;98679.09;7396017;19;20011;-81
2022/10/30 08:28:00;;;;;;;11.15;4.63;;;;;;;16.48;71.55;98674.84;7393305;19;20011;-81
2022/10/30 08:30:34;;;;;;;13.77;5.22;;;;;;;16.54;72.32;98671.47;7390158;19;20015;-81
2022/10/30 08:33:05;;;;;;;10.50;4.75;;;;;;;16.62;71.66;98674.03;7392006;19;20014;-81
2022/10/30 08:35:56;;;;;;;14.02;4.70;;;;;;;16.74;69.86;98671.69;7394557;19;20018;-81
2022/10/30 08:38:29;;;;;;;14.10;4.57;;;;;;;16.82;70.76;98673.44;7394474;19;20014;-81
2022/10/30 08:41:09;;;;;;;12.65;4.70;;;;;;;16.90;71.20;98676.00;7394324;19;20039;-81
2022/10/30 08:43:47;;;;;;;9.50;4.75;;;;;;;17.03;71.02;98673.47;7391758;19;20517;-81
2022/10/30 08:46:16;;;;;;;10.00;4.95;;;;;;;17.11;70.72;98673.38;7393221;19;20015;-81
2022/10/30 08:48:45;;;;;;;15.10;4.95;;;;;;;17.14;70.27;98677.50;7391201;19;20035;-82
2022/10/30 08:51:12;;;;;;;14.77;5.43;;;;;;;17.25;69.32;98678.84;7391737;19;20015;-80
2022/10/30 08:53:43;;;;;;;11.98;4.80;;;;;;;17.27;69.49;98677.63;7395121;19;20017;-80
2022/10/30 08:56:12;;;;;;;15.52;4.63;;;;;;;17.42;69.15;98685.56;7393260;19;20015;-81
2022/10/30 08:59:09;;;;;;;18.75;4.25;;;;;;;17.59;69.07;98669.25;7394480;19;20007;-81
2022/10/30 09:01:38;;;;;;;10.65;4.35;;;;;;;17.67;69.06;98672.63;7393195;19;20038;-80
2022/10/30 09:04:17;;;;;;;17.17;5.50;;;;;;;17.81;68.89;98672.75;7396221;19;20026;-80
2022/10/30 09:07:10;;;;;;;12.88;5.25;;;;;;;17.84;68.29;98670.50;7396758;19;20010;-80
2022/10/30 09:09:58;;;;;;;12.55;4.40;;;;;;;17.93;68.78;98672.03;7387358;19;20025;-81
2022/10/30 09:12:30;;;;;;;15.50;4.22;;;;;;;18.05;67.95;98668.78;7390697;19;20050;-82
2022/10/30 09:15:02;;;;;;;11.15;4.25;;;;;;;18.10;67.57;98669.03;7394908;19;20026;-81
2022/10/30 09:17:38;;;;;;;12.57;4.20;;;;;;;18.20;67.75;98674.88;7397516;19;20096;-81
2022/10/30 09:20:05;;;;;;;15.77;4.25;;;;;;;18.32;65.86;98670.59;7398550;19;20018;-81
2022/10/30 09:22:39;;;;;;;11.55;3.97;;;;;;;18.48;65.02;98679.31;7397442;19;20031;-82
2022/10/30 09:25:07;;;;;;;9.65;4.00;;;;;;;18.42;67.54;98678.28;7396078;19;20011;-82
2022/10/30 09:27:50;;;;;;;12.18;4.43;;;;;;;18.42;67.29;98679.09;7392449;19;20031;-82
2022/10/30 09:30:19;;;;;;;13.18;5.20;;;;;;;18.46;67.99;98679.53;7385824;19;20043;-80
2022/10/30 09:32:58;;;;;;;12.70;4.22;;;;;;;18.55;66.44;98675.66;7386336;19;20505;-82
2022/10/30 09:35:47;;;;;;;14.40;4.50;;;;;;;18.75;64.76;98677.63;7386936;19;20013;-85
2022/10/30 09:38:20;;;;;;;13.48;3.63;;;;;;;18.85;66.25;98684.25;7384011;19;20023;-82
2022/10/30 09:41:00;;;;;;;12.57;3.67;;;;;;;18.85;65.90;98676.22;7390657;19;20503;-82
2022/10/30 09:44:08;;;;;;;18.23;4.87;;;;;;;18.92;65.99;98678.91;7395688;19;20014;-81
2022/10/30 09:47:12;;;;;;;12.13;3.90;;;;;;;19.03;64.80;98674.81;7399116;19;20309;-81
2022/10/30 09:50:13;;;;;;;9.43;3.63;;;;;;;19.13;65.93;98677.09;7394383;19;20043;-80
2022/10/30 09:53:01;;;;;;;13.35;4.05;;;;;;;19.19;64.95;98677.09;7396462;19;20031;-81
2022/10/30 09:55:43;;;;;;;9.45;3.05;;;;;;;19.23;63.68;98681.03;7394216;19;20037;-81
2022/10/30 09:58:26;;;;;;;10.18;4.40;;;;;;;19.24;63.07;98677.31;7395718;19;20029;-81
2022/10/30 10:01:15;;;;;;;11.52;4.30;;;;;;;19.33;64.09;98683.34;7396060;19;20019;-80
2022/10/30 10:03:58;;;;;;;10.48;4.38;;;;;;;19.37;63.47;98673.00;7395469;19;20071;-80
2022/10/30 10:06:46;;;;;;;15.05;4.90;;;;;;;19.42;64.45;98676.72;7399248;19;20086;-81
2022/10/30 10:09:32;;;;;;;14.13;3.92;;;;;;;19.35;64.07;98675.06;7387778;19;20105;-80
2022/10/30 10:12:43;;;;;;;7.20;3.47;;;;;;;19.35;63.51;98675.88;7392622;19;20036;-81
2022/10/30 10:15:18;;;;;;;14.48;3.92;;;;;;;19.47;64.42;98674.25;7398062;19;20018;-80
2022/10/30 10:17:45;;;;;;;12.68;4.55;;;;;;;19.39;64.37;98673.63;7398679;19;20014;-81
2022/10/30 10:20:16;;;;;;;13.65;3.63;;;;;;;19.48;63.77;98675.06;7402294;19;20034;-80
2022/10/30 10:22:49;;;;;;;11.88;4.18;;;;;;;19.49;62.16;98672.19;7401558;19;20026;-80
2022/10/30 10:25:18;;;;;;;8.07;3.55;;;;;;;19.53;64.25;98677.97;7398244;19;21169;-81
2022/10/30 10:28:07;;;;;;;12.35;3.75;;;;;;;19.46;65.09;98677.16;7397684;19;20018;-80
2022/10/30 10:30:44;;;;;;;13.02;3.60;;;;;;;19.55;64.38;98670.53;7395292;19;20027;-81
2022/10/30 10:33:25;;;;;;;11.70;3.85;;;;;;;19.58;64.44;98669.31;7396061;19;20007;-80
2022/10/30 10:35:59;;;;;;;8.02;2.95;;;;;;;19.68;61.58;98672.44;7402365;19;20042;-81
2022/10/30 10:38:49;;;;;;;10.85;3.30;;;;;;;19.65;63.31;98670.97;7400439;19;20022;-81
2022/10/30 10:41:31;;;;;;;12.52;3.53;;;;;;;19.73;63.38;98662.72;7396916;19;20014;-80
2022/10/30 10:44:10;;;;;;;11.68;4.32;;;;;;;19.61;64.60;98664.34;7400201;19;20051;-80
2022/10/30 10:46:47;;;;;;;13.43;3.90;;;;;;;19.57;65.83;98656.94;7405158;19;20031;-80
2022/10/30 10:49:19;;;;;;;8.25;3.83;;;;;;;19.68;64.56;98664.38;7405116;19;20043;-81
2022/10/30 10:52:08;;;;;;;14.25;4.68;;;;;;;19.68;66.10;98654.47;7406609;19;20039;-80
2022/10/30 10:54:42;;;;;;;11.68;3.90;;;;;;;19.84;63.31;98657.75;7406203;19;20018;-81
2022/10/30 10:57:16;;;;;;;13.50;3.63;;;;;;;20.02;62.51;98662.50;7405910;19;20014;-81
2022/10/30 10:59:49;;;;;;;9.45;2.97;;;;;;;19.90;64.41;98656.91;7399348;19;20026;-81
2022/10/30 11:02:22;;;;;;;12.18;3.55;;;;;;;19.93;62.16;98656.50;7402311;19;20010;-81
2022/10/30 11:04:51;;;;;;;12.70;3.70;;;;;;;19.88;62.63;98654.47;7403364;19;20019;-80
2022/10/30 11:07:21;;;;;;;13.02;3.15;;;;;;;19.97;61.54;98654.22;7402120;19;20489;-81
2022/10/30 11:09:55;;;;;;;16.83;3.85;;;;;;;20.02;61.04;98649.06;7404821;19;20022;-81
2022/10/30 11:12:27;;;;;;;11.43;3.25;;;;;;;20.28;60.75;98640.13;7403306;19;20014;-81
2022/10/30 11:15:08;;;;;;;14.68;3.45;;;;;;;20.45;61.46;98633.22;7402528;19;20039;-80
2022/10/30 11:17:41;;;;;;;9.15;3.70;;;;;;;20.42;63.71;98636.31;7403415;19;20010;-80
2022/10/30 11:20:20;;;;;;;16.10;3.85;;;;;;;20.41;63.51;98632.00;7400229;19;20398;-81
2022/10/30 11:22:50;;;;;;;13.40;3.42;;;;;;;20.37;61.71;98636.97;7404231;19;20395;-80
2022/10/30 11:25:21;;;;;;;7.80;3.05;;;;;;;20.38;62.89;98635.94;7404146;19;20046;-80
2022/10/30 11:27:58;;;;;;;11.13;3.25;;;;;;;20.39;62.79;98636.75;7403749;19;20007;-79
2022/10/30 11:30:27;;;;;;;9.68;3.30;;;;;;;20.60;60.94;98633.81;7399959;19;20011;-80
2022/10/30 11:32:54;;;;;;;9.85;2.78;;;;;;;20.67;61.04;98630.25;7400428;19;20014;-80
2022/10/30 11:35:24;;;;;;;6.00;3.03;;;;;;;20.63;60.86;98624.47;7402892;19;20031;-80
2022/10/30 11:38:25;;;;;;;14.50;3.78;;;;;;;20.53;59.90;98624.09;7400424;19;20011;-80
2022/10/30 11:40:52;;;;;;;12.27;3.33;;;;;;;20.58;57.67;98622.44;7394630;19;20018;-79
2022/10/30 11:43:28;;;;;;;9.90;2.97;;;;;;;20.57;60.46;98623.47;7405266;19;20019;-79
2022/10/30 11:46:05;;;;;;;9.63;2.90;;;;;;;20.62;59.50;98622.84;7405112;19;20011;-80
2022/10/30 11:48:38;;;;;;;8.45;3.42;;;;;;;20.63;56.60;98618.28;7401253;19;20019;-81
2022/10/30 11:51:11;;;;;;;9.82;3.08;;;;;;;20.61;59.27;98619.31;7399821;19;20109;-80
2022/10/30 11:53:42;;;;;;;7.13;2.90;;;;;;;20.52;62.55;98623.25;7402245;19;20018;-80
2022/10/30 11:56:18;;;;;;;9.55;3.13;;;;;;;20.57;63.61;98615.41;7402232;19;20007;-80
2022/10/30 11:58:50;;;;;;;9.48;3.03;;;;;;;20.52;63.56;98612.50;7399284;19;20017;-80
2022/10/30 12:01:31;;;;;;;8.80;3.67;;;;;;;20.65;63.71;98617.03;7407031;19;20072;-80
2022/10/30 12:04:14;;;;;;;12.00;3.58;;;;;;;20.54;64.61;98610.47;7410631;19;20019;-80
2022/10/30 12:06:43;;;;;;;10.10;3.70;;;;;;;20.41;65.55;98618.56;7402596;19;20031;-80
2022/10/30 12:09:20;;;;;;;10.95;3.22;;;;;;;20.34;65.28;98615.06;7403103;19;20027;-80
2022/10/30 12:11:47;;;;;;;10.85;3.13;;;;;;;20.28;65.75;98605.19;7401272;19;20030;-79
2022/10/30 12:14:20;;;;;;;13.23;4.05;;;;;;;20.21;66.23;98610.56;7403251;19;20007;-80